Wetterdaten: Woche 05.07.10 - 11.07.10 (KW27)
Datum Zeit Temperatur Luftfeuchte Luftdruck Niederschlag Windrichtung Sonnenschein Solar Wind
05.07.2010 00:00 18,3 C 95 % 1017,3 hPa 0,0 l/m N 0,00 h 0 W/m 0,0 km/h (0 Bft)
05.07.2010 01:00 17,9 C 96 % 1017,6 hPa 0,0 l/m N 0,00 h 0 W/m 0,4 km/h (0 Bft)
05.07.2010 02:00 17,3 C 97 % 1017,2 hPa 0,0 l/m N 0,00 h 0 W/m 0,3 km/h (0 Bft)
05.07.2010 03:00 16,8 C 97 % 1017,0 hPa 0,0 l/m N 0,00 h 0 W/m 1,3 km/h (1 Bft)
05.07.2010 04:00 16,5 C 98 % 1017,0 hPa 0,0 l/m N 0,00 h 0 W/m 0,4 km/h (0 Bft)
05.07.2010 05:00 16,5 C 98 % 1017,0 hPa 0,0 l/m N 0,00 h 8 W/m 1,5 km/h (1 Bft)
05.07.2010 06:00 16,8 C 98 % 1017,0 hPa 0,0 l/m N 0,00 h 40 W/m 1,2 km/h (1 Bft)
05.07.2010 07:00 17,6 C 97 % 1017,4 hPa 0,2 l/m N 0,00 h 33 W/m 0,1 km/h (0 Bft)
05.07.2010 08:00 18,2 C 96 % 1017,7 hPa 0,0 l/m N 0,00 h 80 W/m 0,7 km/h (0 Bft)
05.07.2010 09:00 19,3 C 84 % 1017,7 hPa 0,0 l/m N-NW 0,17 h 238 W/m 2,8 km/h (1 Bft)
05.07.2010 10:00 20,5 C 75 % 1017,7 hPa 0,0 l/m NW 0,42 h 448 W/m 4,0 km/h (1 Bft)
05.07.2010 11:00 22,5 C 63 % 1017,7 hPa 0,0 l/m N-NO 0,75 h 654 W/m 5,9 km/h (2 Bft)
05.07.2010 12:00 24,0 C 60 % 1017,5 hPa 0,0 l/m S-SW 0,83 h 756 W/m 8,9 km/h (2 Bft)
05.07.2010 13:00 25,0 C 61 % 1017,0 hPa 0,0 l/m S-SW 1,00 h 1051 W/m 14,6 km/h (3 Bft)
05.07.2010 14:00 25,2 C 60 % 1016,5 hPa 0,0 l/m S-SW 0,75 h 759 W/m 15,7 km/h (3 Bft)
05.07.2010 15:00 25,0 C 57 % 1016,0 hPa 0,0 l/m W 0,42 h 455 W/m 11,3 km/h (2 Bft)
05.07.2010 16:00 26,0 C 53 % 1015,7 hPa 0,0 l/m W-SW 0,67 h 546 W/m 12,9 km/h (3 Bft)
05.07.2010 17:00 24,2 C 59 % 1015,5 hPa 0,0 l/m W-NW 0,00 h 104 W/m 7,6 km/h (2 Bft)
05.07.2010 18:00 23,4 C 65 % 1015,5 hPa 0,0 l/m W 0,25 h 168 W/m 10,9 km/h (2 Bft)
05.07.2010 19:00 23,6 C 53 % 1015,8 hPa 0,0 l/m W 0,08 h 105 W/m 10,6 km/h (2 Bft)
05.07.2010 20:00 22,4 C 46 % 1016,4 hPa 0,0 l/m N 0,00 h 40 W/m 8,7 km/h (2 Bft)
05.07.2010 21:00 20,9 C 62 % 1017,0 hPa 0,0 l/m N 0,08 h 9 W/m 2,8 km/h (1 Bft)
05.07.2010 22:00 19,0 C 71 % 1017,4 hPa 0,0 l/m N 0,00 h 0 W/m 1,6 km/h (1 Bft)
05.07.2010 23:00 18,3 C 73 % 1017,7 hPa 0,0 l/m N 0,00 h 0 W/m 1,3 km/h (1 Bft)
06.07.2010 00:00 18,3 C 75 % 1018,1 hPa 0,0 l/m N 0,00 h 0 W/m 0,5 km/h (0 Bft)
06.07.2010 01:00 18,2 C 78 % 1018,1 hPa 0,0 l/m N 0,00 h 0 W/m 0,8 km/h (0 Bft)
06.07.2010 02:00 17,5 C 83 % 1017,9 hPa 0,0 l/m N 0,00 h 0 W/m 0,0 km/h (0 Bft)
06.07.2010 03:00 17,1 C 83 % 1017,7 hPa 0,0 l/m N 0,00 h 0 W/m 0,1 km/h (0 Bft)
06.07.2010 04:00 15,9 C 87 % 1017,5 hPa 0,0 l/m N 0,00 h 0 W/m 0,0 km/h (0 Bft)
06.07.2010 05:00 15,9 C 86 % 1017,7 hPa 0,0 l/m N-NW 0,00 h 5 W/m 0,7 km/h (0 Bft)
06.07.2010 06:00 16,3 C 82 % 1017,9 hPa 0,0 l/m N-NW 0,00 h 25 W/m 3,6 km/h (1 Bft)
06.07.2010 07:00 16,6 C 81 % 1018,4 hPa 0,0 l/m W-NW 0,00 h 74 W/m 6,3 km/h (2 Bft)
06.07.2010 08:00 17,2 C 78 % 1019,0 hPa 0,0 l/m N-NW 0,33 h 267 W/m 11,4 km/h (2 Bft)
06.07.2010 09:00 18,2 C 73 % 1019,4 hPa 0,0 l/m N-NW 0,25 h 290 W/m 13,8 km/h (3 Bft)
06.07.2010 10:00 18,8 C 70 % 1019,7 hPa 0,0 l/m N-NW 0,25 h 378 W/m 13,2 km/h (3 Bft)
06.07.2010 11:00 19,0 C 66 % 1020,0 hPa 0,0 l/m N-NW 0,08 h 339 W/m 11,1 km/h (2 Bft)
06.07.2010 12:00 20,1 C 61 % 1019,9 hPa 0,0 l/m N 0,58 h 640 W/m 11,0 km/h (2 Bft)
06.07.2010 13:00 21,1 C 58 % 1019,8 hPa 0,0 l/m N-NW 0,58 h 623 W/m 12,6 km/h (3 Bft)
06.07.2010 14:00 21,8 C 54 % 1019,5 hPa 0,0 l/m NO 0,67 h 700 W/m 18,4 km/h (3 Bft)
06.07.2010 15:00 22,1 C 51 % 1019,3 hPa 0,0 l/m N-NW 0,75 h 712 W/m 17,6 km/h (3 Bft)
06.07.2010 16:00 22,1 C 47 % 1019,2 hPa 0,0 l/m NO 0,67 h 559 W/m 17,4 km/h (3 Bft)
06.07.2010 17:00 22,2 C 45 % 1019,4 hPa 0,0 l/m N-NO 0,58 h 460 W/m 15,3 km/h (3 Bft)
06.07.2010 18:00 21,3 C 46 % 1019,6 hPa 0,0 l/m N-NO 0,33 h 201 W/m 14,5 km/h (3 Bft)
06.07.2010 19:00 20,5 C 47 % 1019,7 hPa 0,0 l/m N-NO 0,25 h 100 W/m 12,4 km/h (3 Bft)
06.07.2010 20:00 19,2 C 51 % 1020,1 hPa 0,0 l/m N-NO 0,00 h 33 W/m 6,8 km/h (2 Bft)
06.07.2010 21:00 18,9 C 51 % 1020,4 hPa 0,0 l/m NO 0,00 h 8 W/m 5,1 km/h (1 Bft)
06.07.2010 22:00 18,2 C 57 % 1020,8 hPa 0,0 l/m NO 0,00 h 0 W/m 2,9 km/h (1 Bft)
06.07.2010 23:00 17,1 C 62 % 1021,2 hPa 0,0 l/m N-NO 0,00 h 0 W/m 2,9 km/h (1 Bft)
07.07.2010 00:00 16,1 C 65 % 1021,1 hPa 0,0 l/m N-NO 0,00 h 0 W/m 4,8 km/h (1 Bft)
07.07.2010 01:00 15,5 C 67 % 1021,3 hPa 0,0 l/m N 0,00 h 0 W/m 5,6 km/h (1 Bft)
07.07.2010 02:00 15,0 C 70 % 1021,4 hPa 0,0 l/m N 0,00 h 0 W/m 1,7 km/h (1 Bft)
07.07.2010 03:00 14,6 C 72 % 1021,1 hPa 0,0 l/m N 0,00 h 0 W/m 1,7 km/h (1 Bft)
07.07.2010 04:00 13,8 C 76 % 1020,8 hPa 0,0 l/m N 0,00 h 0 W/m 1,6 km/h (1 Bft)
07.07.2010 05:00 12,7 C 80 % 1020,6 hPa 0,0 l/m N 0,08 h 12 W/m 1,9 km/h (1 Bft)
07.07.2010 06:00 12,2 C 82 % 1020,7 hPa 0,0 l/m N-NW 0,25 h 61 W/m 3,1 km/h (1 Bft)
07.07.2010 07:00 13,7 C 78 % 1020,9 hPa 0,0 l/m N-NO 1,00 h 234 W/m 3,2 km/h (1 Bft)
07.07.2010 08:00 17,1 C 64 % 1021,1 hPa 0,0 l/m N-NO 1,00 h 404 W/m 5,6 km/h (1 Bft)
07.07.2010 09:00 19,2 C 54 % 1021,1 hPa 0,0 l/m SO 1,00 h 570 W/m 9,0 km/h (2 Bft)
07.07.2010 10:00 20,1 C 49 % 1021,1 hPa 0,0 l/m O-SO 1,00 h 710 W/m 10,4 km/h (2 Bft)
07.07.2010 11:00 20,9 C 47 % 1021,2 hPa 0,0 l/m NO 1,00 h 808 W/m 9,9 km/h (2 Bft)
07.07.2010 12:00 21,9 C 42 % 1021,2 hPa 0,0 l/m NO 1,00 h 876 W/m 12,4 km/h (3 Bft)
07.07.2010 13:00 22,6 C 41 % 1020,9 hPa 0,0 l/m NO 1,00 h 887 W/m 11,7 km/h (2 Bft)
07.07.2010 14:00 23,2 C 38 % 1020,6 hPa 0,0 l/m SO 1,00 h 860 W/m 11,3 km/h (2 Bft)
07.07.2010 15:00 23,9 C 38 % 1020,1 hPa 0,0 l/m O-NO 1,00 h 781 W/m 12,8 km/h (3 Bft)
07.07.2010 16:00 24,2 C 37 % 1019,6 hPa 0,0 l/m O-SO 1,00 h 669 W/m 10,6 km/h (2 Bft)
07.07.2010 17:00 24,4 C 37 % 1019,2 hPa 0,0 l/m O-SO 1,00 h 527 W/m 9,5 km/h (2 Bft)
07.07.2010 18:00 24,2 C 37 % 1019,0 hPa 0,0 l/m O 1,00 h 363 W/m 11,2 km/h (2 Bft)
07.07.2010 19:00 23,5 C 39 % 1018,9 hPa 0,0 l/m O-SO 0,33 h 93 W/m 11,8 km/h (2 Bft)
07.07.2010 20:00 22,2 C 44 % 1018,9 hPa 0,0 l/m O 0,00 h 21 W/m 8,0 km/h (2 Bft)
07.07.2010 21:00 19,1 C 59 % 1019,1 hPa 0,0 l/m N 0,00 h 7 W/m 2,0 km/h (1 Bft)
07.07.2010 22:00 16,3 C 71 % 1019,5 hPa 0,0 l/m N 0,00 h 0 W/m 1,2 km/h (1 Bft)
07.07.2010 23:00 15,7 C 72 % 1019,6 hPa 0,0 l/m N 0,00 h 0 W/m 0,8 km/h (0 Bft)
08.07.2010 00:00 15,2 C 73 % 1019,6 hPa 0,0 l/m N 0,00 h 0 W/m 1,5 km/h (1 Bft)
08.07.2010 01:00 14,5 C 73 % 1019,7 hPa 0,0 l/m N 0,00 h 0 W/m 2,3 km/h (1 Bft)
08.07.2010 02:00 14,1 C 75 % 1019,4 hPa 0,0 l/m N 0,00 h 0 W/m 1,7 km/h (1 Bft)
08.07.2010 03:00 13,4 C 77 % 1019,2 hPa 0,0 l/m N 0,00 h 0 W/m 2,1 km/h (1 Bft)
08.07.2010 04:00 12,9 C 79 % 1019,1 hPa 0,0 l/m N-NW 0,00 h 0 W/m 6,1 km/h (2 Bft)
08.07.2010 05:00 12,7 C 80 % 1018,9 hPa 0,0 l/m NW 0,00 h 7 W/m 3,3 km/h (1 Bft)
08.07.2010 06:00 12,5 C 81 % 1018,9 hPa 0,0 l/m N-NW 0,42 h 68 W/m 5,3 km/h (1 Bft)
08.07.2010 07:00 14,6 C 77 % 1019,0 hPa 0,0 l/m N-NW 1,00 h 259 W/m 6,1 km/h (2 Bft)
08.07.2010 08:00 18,1 C 68 % 1019,1 hPa 0,0 l/m N-NO 1,00 h 428 W/m 5,5 km/h (1 Bft)
08.07.2010 09:00 21,5 C 55 % 1019,1 hPa 0,0 l/m O-NO 1,00 h 586 W/m 6,8 km/h (2 Bft)
08.07.2010 10:00 22,9 C 50 % 1019,0 hPa 0,0 l/m O-NO 1,00 h 716 W/m 8,2 km/h (2 Bft)
08.07.2010 11:00 24,4 C 45 % 1019,1 hPa 0,0 l/m SO 1,00 h 815 W/m 8,2 km/h (2 Bft)
08.07.2010 12:00 25,7 C 39 % 1019,0 hPa 0,0 l/m SO 1,00 h 876 W/m 9,2 km/h (2 Bft)
08.07.2010 13:00 27,0 C 36 % 1018,8 hPa 0,0 l/m N-NO 1,00 h 892 W/m 8,2 km/h (2 Bft)
08.07.2010 14:00 27,8 C 36 % 1018,5 hPa 0,0 l/m W-SW 1,00 h 859 W/m 8,2 km/h (2 Bft)
08.07.2010 15:00 28,6 C 36 % 1018,1 hPa 0,0 l/m O 1,00 h 780 W/m 8,8 km/h (2 Bft)
08.07.2010 16:00 29,2 C 34 % 1017,8 hPa 0,0 l/m N-NO 1,00 h 671 W/m 10,1 km/h (2 Bft)
08.07.2010 17:00 29,4 C 34 % 1017,5 hPa 0,0 l/m O-NO 1,00 h 529 W/m 9,1 km/h (2 Bft)
08.07.2010 18:00 29,0 C 35 % 1017,5 hPa 0,0 l/m O-SO 1,00 h 368 W/m 6,0 km/h (2 Bft)
08.07.2010 19:00 28,5 C 37 % 1017,5 hPa 0,0 l/m O-NO 0,25 h 86 W/m 7,3 km/h (2 Bft)
08.07.2010 20:00 25,9 C 51 % 1017,5 hPa 0,0 l/m O-NO 0,00 h 21 W/m 3,7 km/h (1 Bft)
08.07.2010 21:00 21,8 C 68 % 1017,5 hPa 0,0 l/m N 0,00 h 7 W/m 0,8 km/h (0 Bft)
08.07.2010 22:00 20,1 C 72 % 1017,8 hPa 0,0 l/m N 0,00 h 0 W/m 1,2 km/h (1 Bft)
08.07.2010 23:00 19,0 C 76 % 1017,7 hPa 0,0 l/m N 0,00 h 0 W/m 0,9 km/h (0 Bft)
09.07.2010 00:00 18,2 C 77 % 1017,6 hPa 0,0 l/m N 0,00 h 0 W/m 1,3 km/h (1 Bft)
09.07.2010 01:00 17,5 C 80 % 1017,6 hPa 0,0 l/m N 0,00 h 0 W/m 1,9 km/h (1 Bft)
09.07.2010 02:00 17,2 C 81 % 1017,7 hPa 0,0 l/m N-NW 0,00 h 0 W/m 4,3 km/h (1 Bft)
09.07.2010 03:00 16,5 C 83 % 1018,1 hPa 0,0 l/m N 0,00 h 0 W/m 1,3 km/h (1 Bft)
09.07.2010 04:00 15,4 C 88 % 1018,2 hPa 0,0 l/m N 0,00 h 0 W/m 0,1 km/h (0 Bft)
09.07.2010 05:00 14,7 C 90 % 1018,1 hPa 0,0 l/m N 0,00 h 9 W/m 1,5 km/h (1 Bft)
09.07.2010 06:00 15,4 C 88 % 1018,3 hPa 0,0 l/m N 0,42 h 65 W/m 0,9 km/h (0 Bft)
09.07.2010 07:00 17,3 C 83 % 1018,2 hPa 0,0 l/m N 1,00 h 237 W/m 1,2 km/h (1 Bft)
09.07.2010 08:00 21,0 C 70 % 1018,6 hPa 0,0 l/m SW 1,00 h 398 W/m 2,8 km/h (1 Bft)
09.07.2010 09:00 23,3 C 61 % 1018,4 hPa 0,0 l/m SO 1,00 h 545 W/m 7,1 km/h (2 Bft)
09.07.2010 10:00 25,1 C 59 % 1018,0 hPa 0,0 l/m S-SO 1,00 h 696 W/m 4,5 km/h (1 Bft)
09.07.2010 11:00 27,4 C 50 % 1017,6 hPa 0,0 l/m S-SW 1,00 h 805 W/m 6,9 km/h (2 Bft)
09.07.2010 12:00 29,2 C 48 % 1017,3 hPa 0,0 l/m W-SW 1,00 h 868 W/m 7,5 km/h (2 Bft)
09.07.2010 13:00 30,4 C 42 % 1016,8 hPa 0,0 l/m SW 1,00 h 837 W/m 7,5 km/h (2 Bft)
09.07.2010 14:00 31,2 C 35 % 1016,9 hPa 0,0 l/m O-SO 1,00 h 843 W/m 8,8 km/h (2 Bft)
09.07.2010 15:00 31,2 C 35 % 1016,9 hPa 0,0 l/m W-NW 0,92 h 611 W/m 8,0 km/h (2 Bft)
09.07.2010 16:00 30,4 C 36 % 1017,1 hPa 0,0 l/m W-NW 0,17 h 363 W/m 6,5 km/h (2 Bft)
09.07.2010 17:00 30,3 C 38 % 1016,9 hPa 0,0 l/m N 0,50 h 368 W/m 6,8 km/h (2 Bft)
09.07.2010 18:00 29,8 C 41 % 1016,6 hPa 0,0 l/m O-NO 0,25 h 231 W/m 6,1 km/h (2 Bft)
09.07.2010 19:00 28,7 C 51 % 1016,1 hPa 0,0 l/m O-SO 0,00 h 118 W/m 3,3 km/h (1 Bft)
09.07.2010 20:00 26,0 C 66 % 1016,2 hPa 0,0 l/m N 0,00 h 42 W/m 1,1 km/h (0 Bft)
09.07.2010 21:00 24,3 C 67 % 1016,5 hPa 0,0 l/m N 0,00 h 8 W/m 1,5 km/h (1 Bft)
09.07.2010 22:00 22,8 C 72 % 1016,9 hPa 0,0 l/m N 0,00 h 0 W/m 0,9 km/h (0 Bft)
09.07.2010 23:00 21,6 C 77 % 1017,2 hPa 0,0 l/m NW 0,00 h 0 W/m 2,3 km/h (1 Bft)
10.07.2010 00:00 20,7 C 81 % 1017,3 hPa 0,0 l/m N 0,00 h 0 W/m 0,5 km/h (0 Bft)
10.07.2010 01:00 20,8 C 80 % 1017,3 hPa 0,0 l/m N-NW 0,00 h 0 W/m 5,2 km/h (1 Bft)
10.07.2010 02:00 20,5 C 81 % 1017,2 hPa 0,0 l/m N 0,00 h 0 W/m 2,4 km/h (1 Bft)
10.07.2010 03:00 19,9 C 82 % 1017,1 hPa 0,0 l/m N-NW 0,00 h 0 W/m 3,3 km/h (1 Bft)
10.07.2010 04:00 19,6 C 82 % 1017,2 hPa 0,0 l/m N-NW 0,00 h 0 W/m 4,9 km/h (1 Bft)
10.07.2010 05:00 18,7 C 85 % 1017,3 hPa 0,0 l/m N 0,08 h 10 W/m 1,1 km/h (0 Bft)
10.07.2010 06:00 18,6 C 87 % 1017,3 hPa 0,0 l/m N 0,42 h 68 W/m 0,0 km/h (0 Bft)
10.07.2010 07:00 20,5 C 82 % 1017,3 hPa 0,0 l/m N 1,00 h 204 W/m 0,5 km/h (0 Bft)
10.07.2010 08:00 22,7 C 72 % 1017,3 hPa 0,0 l/m N 1,00 h 369 W/m 1,7 km/h (1 Bft)
10.07.2010 09:00 24,9 C 67 % 1017,2 hPa 0,0 l/m S-SW 1,00 h 518 W/m 2,5 km/h (1 Bft)
10.07.2010 10:00 27,0 C 57 % 1017,0 hPa 0,0 l/m S-SW 1,00 h 664 W/m 4,3 km/h (1 Bft)
10.07.2010 11:00 29,0 C 51 % 1016,8 hPa 0,0 l/m SO 1,00 h 766 W/m 7,2 km/h (2 Bft)
10.07.2010 12:00 30,7 C 46 % 1016,4 hPa 0,0 l/m O-NO 1,00 h 825 W/m 10,6 km/h (2 Bft)
10.07.2010 13:00 32,5 C 35 % 1015,9 hPa 0,0 l/m N-NO 1,00 h 840 W/m 14,6 km/h (3 Bft)
10.07.2010 14:00 33,0 C 31 % 1015,3 hPa 0,0 l/m O-SO 1,00 h 809 W/m 16,1 km/h (3 Bft)
10.07.2010 15:00 33,3 C 31 % 1014,8 hPa 0,0 l/m O 1,00 h 732 W/m 17,0 km/h (3 Bft)
10.07.2010 16:00 33,3 C 31 % 1014,2 hPa 0,0 l/m O-SO 1,00 h 620 W/m 16,8 km/h (3 Bft)
10.07.2010 17:00 32,9 C 33 % 1013,6 hPa 0,0 l/m O-SO 1,00 h 480 W/m 19,6 km/h (3 Bft)
10.07.2010 18:00 32,3 C 35 % 1013,3 hPa 0,0 l/m O-SO 1,00 h 316 W/m 17,4 km/h (3 Bft)
10.07.2010 19:00 30,8 C 41 % 1013,3 hPa 0,0 l/m O-SO 0,33 h 106 W/m 13,2 km/h (3 Bft)
10.07.2010 20:00 29,1 C 46 % 1013,4 hPa 0,0 l/m O 0,00 h 30 W/m 7,5 km/h (2 Bft)
10.07.2010 21:00 25,4 C 60 % 1014,0 hPa 0,0 l/m N 0,00 h 6 W/m 1,7 km/h (1 Bft)
10.07.2010 22:00 24,0 C 62 % 1014,8 hPa 0,0 l/m W 0,00 h 0 W/m 5,4 km/h (1 Bft)
10.07.2010 23:00 24,6 C 59 % 1015,6 hPa 0,0 l/m W 0,00 h 0 W/m 17,2 km/h (3 Bft)
11.07.2010 00:00 22,8 C 66 % 1015,8 hPa 0,0 l/m S-SW 0,00 h 0 W/m 5,5 km/h (1 Bft)
11.07.2010 01:00 21,0 C 74 % 1014,0 hPa 0,0 l/m N-NO 0,00 h 0 W/m 2,3 km/h (1 Bft)
11.07.2010 02:00 21,2 C 72 % 1013,7 hPa 0,0 l/m SW 0,00 h 0 W/m 11,3 km/h (2 Bft)
11.07.2010 03:00 21,0 C 72 % 1014,1 hPa 0,0 l/m W-SW 0,00 h 0 W/m 5,6 km/h (1 Bft)
11.07.2010 04:00 20,9 C 70 % 1014,3 hPa 0,0 l/m SW 0,00 h 0 W/m 6,1 km/h (2 Bft)
11.07.2010 05:00 19,0 C 80 % 1014,6 hPa 0,0 l/m SW 0,08 h 12 W/m 2,3 km/h (1 Bft)
11.07.2010 06:00 18,7 C 84 % 1014,9 hPa 0,0 l/m SW 0,42 h 79 W/m 2,9 km/h (1 Bft)
11.07.2010 07:00 20,5 C 83 % 1014,9 hPa 0,0 l/m SW 1,00 h 238 W/m 9,7 km/h (2 Bft)
11.07.2010 08:00 22,6 C 75 % 1015,3 hPa 0,0 l/m SW 1,00 h 346 W/m 10,5 km/h (2 Bft)
11.07.2010 09:00 23,4 C 71 % 1015,4 hPa 0,0 l/m W-SW 0,58 h 388 W/m 11,2 km/h (2 Bft)
11.07.2010 10:00 24,9 C 68 % 1015,2 hPa 0,0 l/m S-SW 1,00 h 589 W/m 12,1 km/h (2 Bft)
11.07.2010 11:00 26,6 C 63 % 1015,3 hPa 0,0 l/m S-SW 1,00 h 764 W/m 14,5 km/h (3 Bft)
11.07.2010 12:00 27,9 C 60 % 1015,1 hPa 0,0 l/m S-SW 1,00 h 836 W/m 14,0 km/h (3 Bft)
11.07.2010 13:00 29,1 C 56 % 1014,6 hPa 0,0 l/m SW 1,00 h 851 W/m 15,6 km/h (3 Bft)
11.07.2010 14:00 30,4 C 49 % 1014,1 hPa 0,0 l/m S 1,00 h 817 W/m 13,0 km/h (3 Bft)
11.07.2010 15:00 30,8 C 45 % 1013,7 hPa 0,0 l/m O-SO 1,00 h 764 W/m 8,9 km/h (2 Bft)
11.07.2010 16:00 31,1 C 43 % 1013,2 hPa 0,0 l/m N-NW 0,92 h 642 W/m 9,1 km/h (2 Bft)
11.07.2010 17:00 30,7 C 47 % 1012,9 hPa 0,0 l/m N-NO 0,92 h 513 W/m 14,2 km/h (3 Bft)
11.07.2010 18:00 30,4 C 49 % 1012,9 hPa 0,0 l/m N-NO 1,00 h 379 W/m 11,3 km/h (2 Bft)
11.07.2010 19:00 28,7 C 53 % 1013,2 hPa 0,0 l/m N-NO 0,25 h 139 W/m 11,5 km/h (2 Bft)
11.07.2010 20:00 23,4 C 74 % 1014,5 hPa 13,4 l/m W-SW 0,00 h 23 W/m 10,4 km/h (2 Bft)
11.07.2010 21:00 18,7 C 89 % 1016,1 hPa 38,8 l/m W 0,00 h 0 W/m 26,4 km/h (4 Bft)
11.07.2010 22:00 17,9 C 94 % 1015,5 hPa 0,6 l/m SO 0,00 h 0 W/m 9,9 km/h (2 Bft)
11.07.2010 23:00 18,2 C 94 % 1015,8 hPa 0,2 l/m S-SW 0,00 h 0 W/m 4,5 km/h (1 Bft)
Min-Datum _ 07.07.10 10.07.10 11.07.10 - - - - 05.07.10
_ Min-Zeit 06:30 13:55 02:10 - - - - 00:00
Minimum _ 12,1 C 29 % 1012,6 hPa - - - - 0,0 km/h (0 Bft)
Max-Datum _ 10.07.10 05.07.10 07.07.10 11.07.10 - 05.07.10 05.07.10 11.07.10
_ Max-Zeit 16:00 03:10 02:20 21:15 - 09:25 13:20 21:05
Maximum _ 33,7 C 98 % 1021,5 hPa 38,8 l/m - 0,08 h 1148 W/m 41,8 km/h
W-SW (6 Bft)
Durchschnitt _ 21,9 C 64 % 1017,6 hPa #53,2 l/m N-NW #71:20 h 411 W/m 6,8 km/h (2 Bft)